createdAt,value
2022-11-07T00:00:39.827Z,91.66
2022-11-07T00:01:40.072Z,91.71
2022-11-07T00:02:40.342Z,91.66
2022-11-07T00:03:40.458Z,91.77
2022-11-07T00:04:40.660Z,91.77
2022-11-07T00:05:40.891Z,91.66
2022-11-07T00:06:41.092Z,91.56
2022-11-07T00:07:41.292Z,91.56
2022-11-07T00:08:42.458Z,91.56
2022-11-07T00:09:41.663Z,91.66
2022-11-07T00:10:41.885Z,91.77
2022-11-07T00:11:42.105Z,91.87
2022-11-07T00:12:42.315Z,91.97
2022-11-07T00:13:43.480Z,91.97
2022-11-07T00:14:42.692Z,91.87
2022-11-07T00:15:42.913Z,91.77
2022-11-07T00:16:43.132Z,91.87
2022-11-07T00:17:43.335Z,92.08
2022-11-07T00:18:43.557Z,92.49
2022-11-07T00:19:43.769Z,92.90
2022-11-07T00:20:43.997Z,92.38
2022-11-07T00:21:44.199Z,92.69
2022-11-07T00:22:44.402Z,92.80
2022-11-07T00:23:44.616Z,93.05
2022-11-07T00:24:44.822Z,93.25
2022-11-07T00:25:45.068Z,93.87
2022-11-07T00:26:49.357Z,93.87
2022-11-07T00:27:45.502Z,94.38
2022-11-07T00:28:49.631Z,94.49
2022-11-07T00:29:45.944Z,94.38
2022-11-07T00:30:46.182Z,94.59
2022-11-07T00:31:46.398Z,94.90
2022-11-07T00:32:46.618Z,94.90
2022-11-07T00:33:46.835Z,95.10
2022-11-07T00:34:47.049Z,95.10
2022-11-07T00:35:47.612Z,95.21
2022-11-07T00:36:47.486Z,94.90
2022-11-07T00:37:47.682Z,95.10
2022-11-07T00:38:47.883Z,95.10
2022-11-07T00:39:48.095Z,95.21
2022-11-07T00:40:48.315Z,95.10
2022-11-07T00:41:48.521Z,94.90
2022-11-07T00:42:48.731Z,95.10
2022-11-07T00:43:48.933Z,95.21
2022-11-07T00:44:49.142Z,95.21
2022-11-07T00:45:49.373Z,95.31
2022-11-07T00:46:49.572Z,95.52
2022-11-07T00:47:49.795Z,95.10
2022-11-07T00:48:50.001Z,95.10
2022-11-07T00:49:50.221Z,94.90
2022-11-07T00:50:50.436Z,95.10
2022-11-07T00:51:50.681Z,95.31
2022-11-07T00:52:50.880Z,95.10
2022-11-07T00:53:51.104Z,95.10
2022-11-07T00:54:51.306Z,95.10
2022-11-07T00:55:51.538Z,95.21
2022-11-07T00:56:51.740Z,95.52
2022-11-07T00:57:51.948Z,95.21
2022-11-07T00:58:52.145Z,95.21
2022-11-07T00:59:52.387Z,95.42
2022-11-07T01:00:52.607Z,95.42
2022-11-07T01:01:52.893Z,95.21
2022-11-07T01:02:53.260Z,95.21
2022-11-07T01:03:53.252Z,95.31
2022-11-07T01:04:53.477Z,95.31
2022-11-07T01:05:53.727Z,95.21
2022-11-07T01:06:53.937Z,95.21
2022-11-07T01:07:54.147Z,95.42
2022-11-07T01:09:01.373Z,95.42
2022-11-07T01:09:54.537Z,95.37
2022-11-07T01:10:56.518Z,95.17
2022-11-07T01:11:54.937Z,95.06
2022-11-07T01:12:55.155Z,94.85
2022-11-07T01:13:55.355Z,95.06
2022-11-07T01:14:55.555Z,95.17
2022-11-07T01:15:55.900Z,94.85
2022-11-07T01:16:55.991Z,94.76
2022-11-07T01:17:56.189Z,94.76
2022-11-07T01:18:56.387Z,95.06
2022-11-07T01:19:56.599Z,94.85
2022-11-07T01:20:56.815Z,94.55
2022-11-07T01:21:57.025Z,94.85
2022-11-07T01:22:57.249Z,94.65
2022-11-07T01:23:57.507Z,94.65
2022-11-07T01:24:57.706Z,94.24
2022-11-07T01:25:57.938Z,94.13
2022-11-07T01:26:58.142Z,94.03
2022-11-07T01:27:58.335Z,94.09
2022-11-07T01:28:58.538Z,94.09
2022-11-07T01:29:58.744Z,93.99
2022-11-07T01:30:58.955Z,93.79
2022-11-07T01:31:59.150Z,93.68
2022-11-07T01:32:59.363Z,93.68
2022-11-07T01:33:59.560Z,93.58
2022-11-07T01:34:59.778Z,93.27
2022-11-07T01:36:03.617Z,93.27
2022-11-07T01:37:01.188Z,93.37
2022-11-07T01:38:00.381Z,93.27
2022-11-07T01:39:00.582Z,93.27
2022-11-07T01:40:00.782Z,93.27
2022-11-07T01:41:00.990Z,93.27
2022-11-07T01:42:01.195Z,93.27
2022-11-07T01:43:01.398Z,93.27
2022-11-07T01:44:01.645Z,93.27
2022-11-07T01:45:01.879Z,93.37
2022-11-07T01:46:02.053Z,93.37
2022-11-07T01:47:02.268Z,93.37
2022-11-07T01:48:02.486Z,93.48
2022-11-07T01:49:02.682Z,93.16
2022-11-07T01:50:02.937Z,93.37
2022-11-07T01:51:03.154Z,93.06
2022-11-07T01:52:03.385Z,92.76
2022-11-07T01:53:03.583Z,92.61
2022-11-07T01:54:03.791Z,92.82
2022-11-07T01:55:04.020Z,92.82
2022-11-07T01:56:04.240Z,92.71
2022-11-07T01:57:04.522Z,92.65
2022-11-07T01:58:04.635Z,92.71
2022-11-07T01:59:04.906Z,92.76
2022-11-07T02:00:05.015Z,92.96
2022-11-07T02:01:05.240Z,92.96
2022-11-07T02:02:05.623Z,92.96
2022-11-07T02:03:05.754Z,92.96
2022-11-07T02:04:05.860Z,92.96
2022-11-07T02:05:06.064Z,92.96
2022-11-07T02:06:06.296Z,92.96
2022-11-07T02:07:06.504Z,92.86
2022-11-07T02:08:06.734Z,93.06
2022-11-07T02:09:06.942Z,92.96
2022-11-07T02:10:07.133Z,92.96
2022-11-07T02:11:07.378Z,92.96
2022-11-07T02:12:07.583Z,92.86
2022-11-07T02:13:07.777Z,92.96
2022-11-07T02:14:08.014Z,92.92
2022-11-07T02:15:08.217Z,92.82
2022-11-07T02:16:08.472Z,92.71
2022-11-07T02:17:08.674Z,92.71
2022-11-07T02:18:08.886Z,92.71
2022-11-07T02:19:09.084Z,92.71
2022-11-07T02:20:09.289Z,92.71
2022-11-07T02:21:09.532Z,92.71
2022-11-07T02:22:09.725Z,92.71
2022-11-07T02:23:09.918Z,92.92
2022-11-07T02:24:10.113Z,92.92
2022-11-07T02:25:10.315Z,92.71
2022-11-07T02:26:10.536Z,92.61
2022-11-07T02:27:10.732Z,92.71
2022-11-07T02:28:10.926Z,92.92
2022-11-07T02:29:11.124Z,92.92
2022-11-07T02:30:11.326Z,92.82
2022-11-07T02:31:11.548Z,92.82
2022-11-07T02:32:11.760Z,92.92
2022-11-07T02:33:12.274Z,93.33
2022-11-07T02:34:12.201Z,93.12
2022-11-07T02:35:12.406Z,92.92
2022-11-07T02:36:12.625Z,92.92
2022-11-07T02:37:12.820Z,92.82
2022-11-07T02:38:13.014Z,92.92
2022-11-07T02:39:13.212Z,92.82
2022-11-07T02:40:13.433Z,93.02
2022-11-07T02:41:13.643Z,92.82
2022-11-07T02:42:13.844Z,93.02
2022-11-07T02:43:14.406Z,92.82
2022-11-07T02:44:14.219Z,92.92
2022-11-07T02:45:14.424Z,92.61
2022-11-07T02:46:14.628Z,92.71
2022-11-07T02:47:14.847Z,92.71
2022-11-07T02:48:15.037Z,92.71
2022-11-07T02:49:15.232Z,92.61
2022-11-07T02:50:15.423Z,92.61
2022-11-07T02:51:15.631Z,92.61
2022-11-07T02:52:15.828Z,92.82
2022-11-07T02:53:16.500Z,92.57
2022-11-07T02:54:16.242Z,92.36
2022-11-07T02:55:16.440Z,92.25
2022-11-07T02:56:16.651Z,92.25
2022-11-07T02:57:16.863Z,92.05
2022-11-07T02:58:17.069Z,91.95
2022-11-07T02:59:17.280Z,91.80
2022-11-07T03:00:17.484Z,91.60
2022-11-07T03:01:17.793Z,91.60
2022-11-07T03:02:18.047Z,91.39
2022-11-07T03:03:18.312Z,91.39
2022-11-07T03:04:18.307Z,91.39
2022-11-07T03:05:18.495Z,91.29
2022-11-07T03:06:18.710Z,91.08
2022-11-07T03:07:18.909Z,91.19
2022-11-07T03:08:19.095Z,90.88
2022-11-07T03:09:19.287Z,90.67
2022-11-07T03:10:19.494Z,90.22
2022-11-07T03:11:19.930Z,90.22
2022-11-07T03:12:19.877Z,90.32
2022-11-07T03:13:20.067Z,90.01
2022-11-07T03:14:20.325Z,89.91
2022-11-07T03:15:20.584Z,90.01
2022-11-07T03:16:20.676Z,89.70
2022-11-07T03:17:20.871Z,89.40
2022-11-07T03:18:21.066Z,89.25
2022-11-07T03:19:21.325Z,89.36
2022-11-07T03:20:21.410Z,89.15
2022-11-07T03:21:21.644Z,89.15
2022-11-07T03:22:21.845Z,89.04
2022-11-07T03:23:22.032Z,89.36
2022-11-07T03:24:22.218Z,89.36
2022-11-07T03:25:22.421Z,89.25
2022-11-07T03:26:22.640Z,89.36
2022-11-07T03:27:22.844Z,89.25
2022-11-07T03:28:23.034Z,89.25
2022-11-07T03:29:23.231Z,89.25
2022-11-07T03:30:23.421Z,89.15
2022-11-07T03:31:23.646Z,88.95
2022-11-07T03:32:23.831Z,88.84
2022-11-07T03:33:24.026Z,88.95
2022-11-07T03:34:24.221Z,88.95
2022-11-07T03:35:24.411Z,88.84
2022-11-07T03:36:24.630Z,88.84
2022-11-07T03:37:24.831Z,88.74
2022-11-07T03:38:25.021Z,88.95
2022-11-07T03:39:26.067Z,88.95
2022-11-07T03:40:25.444Z,88.95
2022-11-07T03:41:25.670Z,88.84
2022-11-07T03:42:25.875Z,88.74
2022-11-07T03:43:26.064Z,88.95
2022-11-07T03:44:26.256Z,88.74
2022-11-07T03:45:26.455Z,88.74
2022-11-07T03:46:26.660Z,88.74
2022-11-07T03:47:26.850Z,88.84
2022-11-07T03:48:27.058Z,88.95
2022-11-07T03:49:27.250Z,88.84
2022-11-07T03:50:27.455Z,88.95
2022-11-07T03:51:27.668Z,88.95
2022-11-07T03:52:27.876Z,89.04
2022-11-07T03:53:28.488Z,88.74
2022-11-07T03:54:28.322Z,88.64
2022-11-07T03:55:28.528Z,88.53
2022-11-07T03:56:28.760Z,88.74
2022-11-07T03:57:28.959Z,88.64
2022-11-07T03:58:29.138Z,88.74
2022-11-07T03:59:29.344Z,88.74
2022-11-07T04:00:29.533Z,88.53
2022-11-07T04:01:29.850Z,88.43
2022-11-07T04:02:29.970Z,88.23
2022-11-07T04:03:30.134Z,88.23
2022-11-07T04:04:30.339Z,88.18
2022-11-07T04:05:30.518Z,88.39
2022-11-07T04:06:30.742Z,88.39
2022-11-07T04:07:30.936Z,88.43
2022-11-07T04:08:31.636Z,88.43
2022-11-07T04:09:31.295Z,88.33
2022-11-07T04:10:31.488Z,88.53
2022-11-07T04:11:31.699Z,88.43
2022-11-07T04:12:31.912Z,88.53
2022-11-07T04:13:32.107Z,88.39
2022-11-07T04:14:32.301Z,88.64
2022-11-07T04:15:32.516Z,88.33
2022-11-07T04:16:32.739Z,88.23
2022-11-07T04:17:32.939Z,88.43
2022-11-07T04:18:33.131Z,88.53
2022-11-07T04:19:33.327Z,88.43
2022-11-07T04:20:33.563Z,88.53
2022-11-07T04:21:33.798Z,88.53
2022-11-07T04:22:33.984Z,88.74
2022-11-07T04:23:34.194Z,88.53
2022-11-07T04:24:34.391Z,88.64
2022-11-07T04:25:34.590Z,88.64
2022-11-07T04:26:34.815Z,88.64
2022-11-07T04:27:35.000Z,88.43
2022-11-07T04:28:35.200Z,88.74
2022-11-07T04:29:35.394Z,89.04
2022-11-07T04:30:35.579Z,88.64
2022-11-07T04:31:35.794Z,88.74
2022-11-07T04:32:35.987Z,88.84
2022-11-07T04:33:36.179Z,88.74
2022-11-07T04:34:36.368Z,88.95
2022-11-07T04:35:36.578Z,88.64
2022-11-07T04:36:36.798Z,88.43
2022-11-07T04:37:36.977Z,88.53
2022-11-07T04:38:37.172Z,88.39
2022-11-07T04:39:37.367Z,88.29
2022-11-07T04:40:37.570Z,88.18
2022-11-07T04:41:37.786Z,88.18
2022-11-07T04:42:37.980Z,88.18
2022-11-07T04:43:38.184Z,88.08
2022-11-07T04:44:38.388Z,87.98
2022-11-07T04:45:38.587Z,87.98
2022-11-07T04:46:38.799Z,87.88
2022-11-07T04:47:40.576Z,87.88
2022-11-07T04:48:39.148Z,87.77
2022-11-07T04:49:39.343Z,87.77
2022-11-07T04:50:39.534Z,87.67
2022-11-07T04:51:39.752Z,87.67
2022-11-07T04:52:39.939Z,87.67
2022-11-07T04:53:40.122Z,87.67
2022-11-07T04:54:40.312Z,87.77
2022-11-07T04:55:40.502Z,87.67
2022-11-07T04:56:40.718Z,87.57
2022-11-07T04:57:40.911Z,87.67
2022-11-07T04:58:41.099Z,87.57
2022-11-07T04:59:41.293Z,87.46
2022-11-07T05:00:41.510Z,87.57
2022-11-07T05:01:41.852Z,87.67
2022-11-07T05:02:42.070Z,87.57
2022-11-07T05:03:42.444Z,87.77
2022-11-07T05:04:42.336Z,87.77
2022-11-07T05:05:42.574Z,87.67
2022-11-07T05:06:42.822Z,87.57
2022-11-07T05:07:42.933Z,87.57
2022-11-07T05:08:43.135Z,87.46
2022-11-07T05:09:43.327Z,87.57
2022-11-07T05:10:43.517Z,87.37
2022-11-07T05:11:43.728Z,87.46
2022-11-07T05:12:43.938Z,87.37
2022-11-07T05:13:44.142Z,87.46
2022-11-07T05:14:44.344Z,87.57
2022-11-07T05:15:44.539Z,87.46
2022-11-07T05:16:44.758Z,87.46
2022-11-07T05:17:44.947Z,87.46
2022-11-07T05:18:45.137Z,87.46
2022-11-07T05:19:45.326Z,87.57
2022-11-07T05:20:45.518Z,87.46
2022-11-07T05:21:45.725Z,87.37
2022-11-07T05:22:45.915Z,87.46
2022-11-07T05:23:46.106Z,87.57
2022-11-07T05:24:46.283Z,87.26
2022-11-07T05:25:46.472Z,87.37
2022-11-07T05:26:46.684Z,87.37
2022-11-07T05:27:46.896Z,87.26
2022-11-07T05:28:47.091Z,87.37
2022-11-07T05:29:47.285Z,87.26
2022-11-07T05:30:47.463Z,87.26
2022-11-07T05:31:47.693Z,87.37
2022-11-07T05:32:47.877Z,87.46
2022-11-07T05:33:48.067Z,87.26
2022-11-07T05:34:48.262Z,87.16
2022-11-07T05:35:48.453Z,87.26
2022-11-07T05:36:48.663Z,86.95
2022-11-07T05:37:48.866Z,87.05
2022-11-07T05:38:49.043Z,86.95
2022-11-07T05:39:53.940Z,87.16
2022-11-07T05:40:50.371Z,87.26
2022-11-07T05:41:49.586Z,87.05
2022-11-07T05:42:49.783Z,87.05
2022-11-07T05:43:49.999Z,87.05
2022-11-07T05:44:50.243Z,86.85
2022-11-07T05:45:50.330Z,87.16
2022-11-07T05:46:50.580Z,87.05
2022-11-07T05:47:50.787Z,86.95
2022-11-07T05:48:50.995Z,87.05
2022-11-07T05:49:51.206Z,87.05
2022-11-07T05:50:51.403Z,87.05
2022-11-07T05:51:51.650Z,86.95
2022-11-07T05:52:51.903Z,86.95
2022-11-07T05:53:51.998Z,86.85
2022-11-07T05:54:52.199Z,86.85
2022-11-07T05:55:52.419Z,86.85
2022-11-07T05:56:52.626Z,86.95
2022-11-07T05:57:52.814Z,86.85
2022-11-07T05:58:53.003Z,86.95
2022-11-07T05:59:53.198Z,86.54
2022-11-07T06:00:53.398Z,86.54
2022-11-07T06:01:53.730Z,86.65
2022-11-07T06:02:53.865Z,86.54
2022-11-07T06:03:53.969Z,86.65
2022-11-07T06:04:54.162Z,86.65
2022-11-07T06:05:54.340Z,86.54
2022-11-07T06:06:54.585Z,86.65
2022-11-07T06:07:54.661Z,86.54
2022-11-07T06:08:54.854Z,86.44
2022-11-07T06:09:55.055Z,86.44
2022-11-07T06:10:55.252Z,86.33
2022-11-07T06:11:55.451Z,86.44
2022-11-07T06:12:56.235Z,86.54
2022-11-07T06:13:55.874Z,86.65
2022-11-07T06:14:56.066Z,86.44
2022-11-07T06:15:56.281Z,86.44
2022-11-07T06:16:56.490Z,86.24
2022-11-07T06:17:56.683Z,86.33
2022-11-07T06:18:56.871Z,86.24
2022-11-07T06:19:57.056Z,86.33
2022-11-07T06:20:57.269Z,86.13
2022-11-07T06:21:57.513Z,86.24
2022-11-07T06:22:57.681Z,86.24
2022-11-07T06:23:57.877Z,86.13
2022-11-07T06:24:58.062Z,86.19
2022-11-07T06:25:58.272Z,86.44
2022-11-07T06:26:58.467Z,86.19
2022-11-07T06:27:58.665Z,86.19
2022-11-07T06:28:58.852Z,86.09
2022-11-07T06:29:59.081Z,86.19
2022-11-07T06:30:59.267Z,86.09
2022-11-07T06:31:59.481Z,86.09
2022-11-07T06:32:59.684Z,85.99
2022-11-07T06:33:59.896Z,85.99
2022-11-07T06:35:00.097Z,86.09
2022-11-07T06:36:00.283Z,85.99
2022-11-07T06:37:03.370Z,85.89
2022-11-07T06:38:00.720Z,85.89
2022-11-07T06:39:00.906Z,85.89
2022-11-07T06:40:01.096Z,85.89
2022-11-07T06:41:01.289Z,85.89
2022-11-07T06:42:01.507Z,85.89
2022-11-07T06:43:01.701Z,85.89
2022-11-07T06:44:01.903Z,85.89
2022-11-07T06:45:02.162Z,85.89
2022-11-07T06:46:02.317Z,85.89
2022-11-07T06:47:02.643Z,85.89
2022-11-07T06:48:02.716Z,85.78
2022-11-07T06:49:02.953Z,85.89
2022-11-07T06:50:03.145Z,85.68
2022-11-07T06:51:03.330Z,85.89
2022-11-07T06:52:03.538Z,85.85
2022-11-07T06:53:03.723Z,85.74
2022-11-07T06:54:03.923Z,85.44
2022-11-07T06:55:04.126Z,85.44
2022-11-07T06:56:04.318Z,85.64
2022-11-07T06:57:04.524Z,85.54
2022-11-07T06:58:04.724Z,85.54
2022-11-07T06:59:04.936Z,85.74
2022-11-07T07:00:05.135Z,85.64
2022-11-07T07:01:05.447Z,85.44
2022-11-07T07:02:05.631Z,85.33
2022-11-07T07:03:05.895Z,85.23
2022-11-07T07:04:06.034Z,85.13
2022-11-07T07:05:06.222Z,85.13
2022-11-07T07:06:06.415Z,85.23
2022-11-07T07:07:06.642Z,85.13
2022-11-07T07:08:06.815Z,85.03
2022-11-07T07:09:07.000Z,85.03
2022-11-07T07:10:07.182Z,84.92
2022-11-07T07:11:07.374Z,84.99
2022-11-07T07:12:07.579Z,84.99
2022-11-07T07:13:07.789Z,85.09
2022-11-07T07:14:11.602Z,84.88
2022-11-07T07:15:08.199Z,84.88
2022-11-07T07:16:08.381Z,84.78
2022-11-07T07:17:08.595Z,84.68
2022-11-07T07:18:08.849Z,84.47
2022-11-07T07:19:08.929Z,84.33
2022-11-07T07:20:09.118Z,83.13
2022-11-07T07:21:09.300Z,81.04
2022-11-07T07:22:09.501Z,81.29
2022-11-07T07:23:09.686Z,81.90
2022-11-07T07:24:09.871Z,82.00
2022-11-07T07:25:10.062Z,82.21
2022-11-07T07:26:10.263Z,82.00
2022-11-07T07:27:10.469Z,82.14
2022-11-07T07:28:10.645Z,82.55
2022-11-07T07:29:10.826Z,82.65
2022-11-07T07:30:11.006Z,82.96
2022-11-07T07:31:11.196Z,82.96
2022-11-07T07:32:11.427Z,83.17
2022-11-07T07:33:11.497Z,83.17
2022-11-07T07:34:11.676Z,83.31
2022-11-07T07:35:11.867Z,83.37
2022-11-07T07:36:16.490Z,83.47
2022-11-07T07:37:13.196Z,83.37
2022-11-07T07:38:12.365Z,83.41
2022-11-07T07:39:12.542Z,83.61
2022-11-07T07:40:12.724Z,83.72
2022-11-07T07:41:12.903Z,83.72
2022-11-07T07:42:13.093Z,83.68
2022-11-07T07:43:13.611Z,83.68
2022-11-07T07:44:13.493Z,83.47
2022-11-07T07:45:13.687Z,83.17
2022-11-07T07:46:13.875Z,83.47
2022-11-07T07:47:14.086Z,83.47
2022-11-07T07:48:14.274Z,83.37
2022-11-07T07:49:14.456Z,83.06
2022-11-07T07:50:14.644Z,83.03
2022-11-07T07:51:14.837Z,82.71
2022-11-07T07:52:15.022Z,82.41
2022-11-07T07:53:15.428Z,82.62
2022-11-07T07:54:15.391Z,82.82
2022-11-07T07:55:15.573Z,82.95
2022-11-07T07:56:15.755Z,78.71
2022-11-07T07:57:15.954Z,75.64
2022-11-07T07:58:16.155Z,73.74
2022-11-07T07:59:16.336Z,72.48
2022-11-07T08:00:16.500Z,71.53
2022-11-07T08:01:16.707Z,70.14
2022-11-07T08:02:16.921Z,70.07
2022-11-07T08:03:17.428Z,70.18
2022-11-07T08:04:17.349Z,70.48
2022-11-07T08:05:17.362Z,69.40
2022-11-07T08:06:17.506Z,68.89
2022-11-07T08:07:17.681Z,68.25
2022-11-07T08:08:17.874Z,68.01
2022-11-07T08:09:18.028Z,67.54
2022-11-07T08:11:19.303Z,67.94
2022-11-07T08:12:18.444Z,67.84
2022-11-07T08:13:18.887Z,67.71
2022-11-07T08:14:18.753Z,67.00
2022-11-07T08:15:18.900Z,67.84
2022-11-07T08:16:19.068Z,68.69
2022-11-07T08:17:19.206Z,68.79
2022-11-07T08:18:19.462Z,68.89
2022-11-07T08:19:19.491Z,69.53
2022-11-07T08:20:19.651Z,69.74
2022-11-07T08:21:19.778Z,69.81
2022-11-07T08:22:19.923Z,69.40
2022-11-07T08:23:20.404Z,68.32
2022-11-07T08:24:20.206Z,68.01
2022-11-07T08:25:20.351Z,67.27
2022-11-07T08:26:20.478Z,66.74
2022-11-07T08:27:20.605Z,65.56
2022-11-07T08:28:20.745Z,65.25
2022-11-07T08:29:20.885Z,64.72
2022-11-07T08:30:21.009Z,64.41
2022-11-07T08:31:21.137Z,64.21
2022-11-07T08:32:21.260Z,65.89
2022-11-07T08:33:21.454Z,65.15
2022-11-07T08:34:21.446Z,64.28
2022-11-07T08:35:21.566Z,64.38
2022-11-07T08:36:21.680Z,63.67
2022-11-07T08:37:21.795Z,63.57
2022-11-07T08:38:21.910Z,63.67
2022-11-07T08:39:22.021Z,63.47
2022-11-07T08:40:22.143Z,64.85
2022-11-07T08:41:22.710Z,64.38
2022-11-07T08:42:22.330Z,64.41
2022-11-07T08:43:22.454Z,63.75
2022-11-07T08:44:22.559Z,63.10
2022-11-07T08:45:22.659Z,62.93
2022-11-07T08:46:22.757Z,64.85
2022-11-07T08:47:22.886Z,67.10
2022-11-07T08:48:23.016Z,69.43
2022-11-07T08:49:23.106Z,71.73
2022-11-07T08:50:23.208Z,72.92
2022-11-07T08:51:23.323Z,74.28
2022-11-07T08:52:23.429Z,75.34
2022-11-07T08:53:23.567Z,75.95
2022-11-07T08:54:23.675Z,76.39
2022-11-07T08:55:23.804Z,76.46
2022-11-07T08:56:23.940Z,76.25
2022-11-07T08:57:24.081Z,76.35
2022-11-07T08:58:29.726Z,76.80
2022-11-07T08:59:25.317Z,76.56
2022-11-07T09:00:24.494Z,75.71
2022-11-07T09:01:24.788Z,74.01
2022-11-07T09:04:25.971Z,72.52
2022-11-07T09:05:25.094Z,72.86
2022-11-07T09:06:25.224Z,73.30
2022-11-07T09:07:25.364Z,73.91
2022-11-07T09:08:25.507Z,74.01
2022-11-07T09:09:25.665Z,74.41
2022-11-07T09:10:25.803Z,74.55
2022-11-07T09:11:25.942Z,75.06
2022-11-07T09:12:26.091Z,75.16
2022-11-07T09:13:26.222Z,73.67
2022-11-07T09:14:26.368Z,71.97
2022-11-07T09:15:26.534Z,70.45
2022-11-07T09:16:26.676Z,67.82
2022-11-07T09:17:26.824Z,67.03
2022-11-07T09:18:26.989Z,68.83
2022-11-07T09:19:27.135Z,68.76
2022-11-07T09:20:27.271Z,67.31
2022-11-07T09:21:27.401Z,66.16
2022-11-07T09:22:27.531Z,67.14
2022-11-07T09:23:27.720Z,68.83
2022-11-07T09:24:27.783Z,70.31
2022-11-07T09:25:27.914Z,71.36
2022-11-07T09:26:28.045Z,70.59
2022-11-07T09:27:28.173Z,71.26
2022-11-07T09:28:28.294Z,69.27
2022-11-07T09:29:28.448Z,66.00
2022-11-07T09:30:28.572Z,64.12
2022-11-07T09:31:28.701Z,63.28
2022-11-07T09:32:44.641Z,63.28
2022-11-07T09:33:29.912Z,62.95
2022-11-07T09:34:29.032Z,62.01
2022-11-07T09:35:29.150Z,61.07
2022-11-07T09:36:29.258Z,61.17
2022-11-07T09:37:29.360Z,60.41
2022-11-07T09:38:29.475Z,59.60
2022-11-07T09:39:29.591Z,58.74
2022-11-07T09:40:29.692Z,58.44
2022-11-07T09:41:29.793Z,58.23
2022-11-07T09:42:29.884Z,59.30
2022-11-07T09:43:29.972Z,58.74
2022-11-07T09:44:33.282Z,58.67
2022-11-07T09:45:31.146Z,58.87
2022-11-07T09:46:30.230Z,59.07
2022-11-07T09:47:30.344Z,58.67
2022-11-07T09:48:30.422Z,58.91
2022-11-07T09:49:30.528Z,57.30
2022-11-07T09:50:30.664Z,57.88
2022-11-07T09:51:30.666Z,57.40
2022-11-07T09:52:30.750Z,58.36
2022-11-07T09:53:30.831Z,59.27
2022-11-07T09:54:31.031Z,58.87
2022-11-07T09:55:31.001Z,58.54
2022-11-07T09:56:31.093Z,57.70
2022-11-07T09:57:31.173Z,58.34
2022-11-07T09:58:31.303Z,58.44
2022-11-07T09:59:31.289Z,57.81
2022-11-07T10:00:31.382Z,57.81
2022-11-07T10:01:31.606Z,56.54
2022-11-07T10:02:31.635Z,56.54
2022-11-07T10:03:31.562Z,57.17
2022-11-07T10:04:31.653Z,56.34
2022-11-07T10:05:31.759Z,57.10
2022-11-07T10:06:31.832Z,57.17
2022-11-07T10:07:31.943Z,56.62
2022-11-07T10:08:32.030Z,56.34
2022-11-07T10:09:32.124Z,56.62
2022-11-07T10:10:32.197Z,55.68
2022-11-07T10:11:32.273Z,56.95
2022-11-07T10:12:32.342Z,56.95
2022-11-07T10:13:32.432Z,56.41
2022-11-07T10:14:32.523Z,55.05
2022-11-07T10:15:32.597Z,55.38
2022-11-07T10:16:32.681Z,54.83
2022-11-07T10:17:32.755Z,54.00
2022-11-07T10:18:32.824Z,54.00
2022-11-07T10:19:32.912Z,54.53
2022-11-07T10:20:32.973Z,55.08
2022-11-07T10:21:38.187Z,55.91
2022-11-07T10:22:34.067Z,56.64
2022-11-07T10:23:33.168Z,56.62
2022-11-07T10:24:33.143Z,56.01
2022-11-07T10:25:33.225Z,56.51
2022-11-07T10:26:33.294Z,56.31
2022-11-07T10:27:33.356Z,55.91
2022-11-07T10:28:33.414Z,55.81
2022-11-07T10:29:33.494Z,56.31
2022-11-07T10:30:33.543Z,56.41
2022-11-07T10:31:33.612Z,56.21
2022-11-07T10:32:33.677Z,56.64
2022-11-07T10:33:33.742Z,57.28
2022-11-07T10:34:33.808Z,57.07
2022-11-07T10:35:33.883Z,57.70
2022-11-07T10:36:33.950Z,57.57
2022-11-07T10:37:34.014Z,57.37
2022-11-07T10:38:34.076Z,57.17
2022-11-07T10:39:34.154Z,56.84
2022-11-07T10:40:34.215Z,56.41
2022-11-07T10:41:34.297Z,55.79
2022-11-07T10:42:34.357Z,55.58
2022-11-07T10:43:34.424Z,55.05
2022-11-07T10:44:34.501Z,55.16
2022-11-07T10:45:34.573Z,54.10
2022-11-07T10:46:34.673Z,53.70
2022-11-07T10:47:34.762Z,54.45
2022-11-07T10:48:34.859Z,55.81
2022-11-07T10:49:34.928Z,56.84
2022-11-07T10:50:34.990Z,57.37
2022-11-07T10:51:35.078Z,56.84
2022-11-07T10:52:35.408Z,56.51
2022-11-07T10:53:35.252Z,56.64
2022-11-07T10:54:35.330Z,57.68
2022-11-07T10:55:35.406Z,58.34
2022-11-07T10:56:35.479Z,58.94
2022-11-07T10:57:35.554Z,58.64
2022-11-07T10:58:35.632Z,58.84
2022-11-07T10:59:36.642Z,58.21
2022-11-07T11:00:35.822Z,58.31
2022-11-07T11:01:35.890Z,58.54
2022-11-07T11:02:35.893Z,59.27
2022-11-07T11:03:44.380Z,58.94
2022-11-07T11:04:37.017Z,57.88
2022-11-07T11:05:36.105Z,57.24
2022-11-07T11:06:36.192Z,57.15
2022-11-07T11:07:36.274Z,56.74
2022-11-07T11:08:36.362Z,57.24
2022-11-07T11:09:36.454Z,56.62
2022-11-07T11:10:36.545Z,55.99
2022-11-07T11:11:36.635Z,54.93
2022-11-07T11:12:36.764Z,54.85
2022-11-07T11:13:36.821Z,55.33
2022-11-07T11:14:36.905Z,54.20
2022-11-07T11:15:37.009Z,54.50
2022-11-07T11:16:37.080Z,54.85
2022-11-07T11:17:37.141Z,55.88
2022-11-07T11:18:37.308Z,55.88
2022-11-07T11:19:37.284Z,56.01
2022-11-07T11:20:37.358Z,57.57
2022-11-07T11:21:37.426Z,58.41
2022-11-07T11:22:37.505Z,58.51
2022-11-07T11:23:37.600Z,59.14
2022-11-07T11:24:37.691Z,58.84
2022-11-07T11:25:37.776Z,59.55
2022-11-07T11:26:37.864Z,59.37
2022-11-07T11:27:37.970Z,59.77
2022-11-07T11:28:38.054Z,59.44
2022-11-07T11:29:39.610Z,59.24
2022-11-07T11:30:38.276Z,59.67
2022-11-07T11:31:38.252Z,60.00
2022-11-07T11:32:38.327Z,60.91
2022-11-07T11:33:38.426Z,60.91
2022-11-07T11:34:38.513Z,60.94
2022-11-07T11:35:41.987Z,60.91
2022-11-07T11:36:38.707Z,60.58
2022-11-07T11:37:38.785Z,60.17
2022-11-07T11:38:38.865Z,59.77
2022-11-07T11:39:38.956Z,60.81
2022-11-07T11:40:39.055Z,59.88
2022-11-07T11:41:39.156Z,58.81
2022-11-07T11:42:39.248Z,58.15
2022-11-07T11:43:39.325Z,57.09
2022-11-07T11:44:39.406Z,55.86
2022-11-07T11:45:39.507Z,55.13
2022-11-07T11:46:39.593Z,55.46
2022-11-07T11:47:39.674Z,54.83
2022-11-07T11:48:39.766Z,54.90
2022-11-07T11:49:39.845Z,54.96
2022-11-07T11:50:39.946Z,55.46
2022-11-07T11:51:40.026Z,55.13
2022-11-07T11:52:40.086Z,54.93
2022-11-07T11:53:40.174Z,55.86
2022-11-07T11:54:40.261Z,55.66
2022-11-07T11:55:40.346Z,56.09
2022-11-07T11:56:40.415Z,56.19
2022-11-07T11:57:40.481Z,55.33
2022-11-07T11:58:40.557Z,55.16
2022-11-07T11:59:40.628Z,54.96
2022-11-07T12:00:40.728Z,55.46
2022-11-07T12:01:40.796Z,57.07
2022-11-07T12:02:40.921Z,58.51
2022-11-07T12:03:40.986Z,58.51
2022-11-07T12:04:41.094Z,58.71
2022-11-07T12:05:41.201Z,59.24
2022-11-07T12:06:41.608Z,60.61
2022-11-07T12:07:41.356Z,61.44
2022-11-07T12:08:41.463Z,61.65
2022-11-07T12:09:41.551Z,61.85
2022-11-07T12:10:41.640Z,61.01
2022-11-07T12:11:41.764Z,59.57
2022-11-07T12:12:41.851Z,59.84
2022-11-07T12:13:41.944Z,59.11
2022-11-07T12:14:42.031Z,58.81
2022-11-07T12:15:42.152Z,60.10
2022-11-07T12:16:42.268Z,61.14
2022-11-07T12:17:42.371Z,61.75
2022-11-07T12:18:42.489Z,60.68
2022-11-07T12:19:42.583Z,60.17
2022-11-07T12:20:42.709Z,60.41
2022-11-07T12:21:48.250Z,61.24
2022-11-07T12:22:43.871Z,62.21
2022-11-07T12:23:42.976Z,63.05
2022-11-07T12:24:43.075Z,63.35
2022-11-07T12:25:43.198Z,62.82
2022-11-07T12:26:43.317Z,62.28
2022-11-07T12:27:43.420Z,61.11
2022-11-07T12:28:43.536Z,59.95
2022-11-07T12:29:43.631Z,59.11
2022-11-07T12:30:43.751Z,58.38
2022-11-07T12:31:43.861Z,58.68
2022-11-07T12:32:43.957Z,58.15
2022-11-07T12:33:44.062Z,58.31
2022-11-07T12:34:44.172Z,58.91
2022-11-07T12:35:44.298Z,58.58
2022-11-07T12:36:44.392Z,57.02
2022-11-07T12:37:44.510Z,56.19
2022-11-07T12:38:44.606Z,56.51
2022-11-07T12:39:44.709Z,55.33
2022-11-07T12:40:44.817Z,54.72
2022-11-07T12:41:44.897Z,56.29
2022-11-07T12:42:46.437Z,56.62
2022-11-07T12:43:45.067Z,57.35
2022-11-07T12:44:45.146Z,58.38
2022-11-07T12:45:45.244Z,58.38
2022-11-07T12:46:45.373Z,59.04
2022-11-07T12:47:45.353Z,60.51
2022-11-07T12:48:45.456Z,61.77
2022-11-07T12:49:45.540Z,63.45
2022-11-07T12:50:45.655Z,64.09
2022-11-07T12:51:45.751Z,64.70
2022-11-07T12:52:45.865Z,65.13
2022-11-07T12:53:45.970Z,65.47
2022-11-07T12:54:46.097Z,65.77
2022-11-07T12:55:46.221Z,65.97
2022-11-07T12:56:46.333Z,66.10
2022-11-07T12:57:46.447Z,66.38